createdAt,value
2022-12-16T00:00:39.910Z,68.30
2022-12-16T00:03:11.542Z,68.30
2022-12-16T00:05:44.655Z,68.10
2022-12-16T00:08:17.652Z,67.40
2022-12-16T00:10:55.187Z,66.90
2022-12-16T00:13:27.103Z,66.80
2022-12-16T00:15:58.789Z,66.90
2022-12-16T00:18:30.458Z,67.00
2022-12-16T00:21:02.500Z,67.10
2022-12-16T00:23:36.453Z,67.40
2022-12-16T00:26:08.662Z,67.60
2022-12-16T00:28:40.455Z,67.90
2022-12-16T00:31:12.151Z,68.30
2022-12-16T00:33:43.874Z,68.60
2022-12-16T00:36:15.452Z,68.80
2022-12-16T00:38:48.407Z,69.10
2022-12-16T00:41:20.022Z,69.40
2022-12-16T00:43:51.673Z,69.70
2022-12-16T00:46:23.432Z,69.90
2022-12-16T00:48:55.365Z,70.20
2022-12-16T00:51:26.984Z,70.40
2022-12-16T00:53:59.893Z,70.70
2022-12-16T00:56:31.496Z,70.90
2022-12-16T00:59:03.171Z,71.10
2022-12-16T01:01:34.876Z,71.30
2022-12-16T01:04:06.532Z,71.50
2022-12-16T01:06:38.121Z,71.70
2022-12-16T01:09:11.032Z,71.90
2022-12-16T01:11:42.653Z,72.10
2022-12-16T01:14:14.246Z,72.20
2022-12-16T01:16:45.909Z,72.40
2022-12-16T01:19:17.555Z,72.50
2022-12-16T01:21:49.152Z,72.60
2022-12-16T01:24:22.133Z,72.70
2022-12-16T01:26:53.725Z,72.80
2022-12-16T01:29:25.547Z,72.90
2022-12-16T01:31:57.276Z,73.10
2022-12-16T01:34:28.941Z,73.20
2022-12-16T01:37:00.539Z,73.40
2022-12-16T01:39:33.473Z,73.60
2022-12-16T01:42:05.418Z,73.80
2022-12-16T01:44:37.011Z,73.90
2022-12-16T01:47:13.312Z,74.00
2022-12-16T01:49:48.115Z,74.20
2022-12-16T01:52:21.297Z,74.30
2022-12-16T01:54:56.252Z,74.40
2022-12-16T01:57:30.027Z,74.50
2022-12-16T02:00:02.431Z,75.00
2022-12-16T02:02:34.743Z,74.70
2022-12-16T02:05:21.609Z,74.90
2022-12-16T02:07:59.343Z,75.00
2022-12-16T02:10:39.628Z,75.10
2022-12-16T02:13:16.637Z,75.30
2022-12-16T02:15:52.091Z,75.40
2022-12-16T02:18:29.317Z,75.50
2022-12-16T02:21:10.074Z,75.60
2022-12-16T02:24:05.389Z,75.70
2022-12-16T02:26:51.926Z,75.80
2022-12-16T02:29:36.883Z,75.90
2022-12-16T02:32:14.727Z,76.10
2022-12-16T02:34:50.603Z,76.30
2022-12-16T02:37:27.292Z,76.50
2022-12-16T02:39:59.657Z,76.60
2022-12-16T02:42:32.162Z,76.70
2022-12-16T02:45:06.171Z,76.80
2022-12-16T02:47:39.158Z,77.00
2022-12-16T02:50:16.086Z,77.10
2022-12-16T02:52:47.901Z,77.30
2022-12-16T02:55:19.899Z,77.50
2022-12-16T02:57:59.674Z,77.70
2022-12-16T03:00:34.625Z,78.30
2022-12-16T03:03:08.858Z,78.00
2022-12-16T03:05:42.643Z,78.00
2022-12-16T03:08:15.326Z,78.10
2022-12-16T03:10:51.396Z,78.10
2022-12-16T03:13:23.399Z,78.10
2022-12-16T03:15:57.862Z,78.10
2022-12-16T03:18:31.002Z,78.10
2022-12-16T03:21:03.985Z,78.20
2022-12-16T03:23:37.807Z,78.20
2022-12-16T03:26:12.552Z,78.30
2022-12-16T03:28:45.619Z,78.30
2022-12-16T03:31:20.802Z,78.30
2022-12-16T03:33:57.153Z,78.40
2022-12-16T03:36:30.874Z,78.40
2022-12-16T03:39:03.172Z,78.50
2022-12-16T03:41:35.371Z,78.60
2022-12-16T03:44:07.709Z,78.60
2022-12-16T03:46:39.408Z,78.70
2022-12-16T03:49:12.355Z,78.70
2022-12-16T03:51:43.959Z,78.90
2022-12-16T03:54:15.631Z,78.90
2022-12-16T03:56:47.589Z,78.90
2022-12-16T03:59:19.396Z,78.90
2022-12-16T04:01:51.081Z,79.00
2022-12-16T04:04:24.737Z,79.00
2022-12-16T04:07:15.159Z,79.00
2022-12-16T04:09:47.079Z,79.10
2022-12-16T04:12:37.632Z,79.10
2022-12-16T04:15:28.065Z,79.20
2022-12-16T04:18:18.063Z,79.20
2022-12-16T04:21:11.058Z,79.30
2022-12-16T04:24:04.972Z,79.30
2022-12-16T04:26:56.652Z,79.30
2022-12-16T04:29:28.225Z,79.40
2022-12-16T04:32:00.127Z,79.40
2022-12-16T04:34:31.715Z,79.40
2022-12-16T04:37:23.336Z,79.40
2022-12-16T04:40:13.576Z,79.50
2022-12-16T04:43:03.516Z,79.50
2022-12-16T04:45:53.834Z,79.50
2022-12-16T04:49:01.040Z,79.50
2022-12-16T04:51:51.447Z,79.60
2022-12-16T04:54:43.105Z,79.70
2022-12-16T04:57:33.234Z,79.90
2022-12-16T05:00:24.199Z,80.10
2022-12-16T05:03:15.353Z,80.30
2022-12-16T05:06:05.658Z,80.40
2022-12-16T05:08:55.677Z,80.50
2022-12-16T05:11:46.914Z,80.40
2022-12-16T05:14:37.251Z,80.50
2022-12-16T05:17:27.835Z,80.50
2022-12-16T05:20:18.113Z,80.60
2022-12-16T05:23:08.042Z,80.60
2022-12-16T05:25:58.542Z,80.60
2022-12-16T05:28:50.013Z,80.60
2022-12-16T05:31:40.246Z,80.60
2022-12-16T05:34:30.735Z,80.60
2022-12-16T05:37:20.981Z,80.70
2022-12-16T05:40:11.408Z,80.80
2022-12-16T05:43:03.606Z,80.90
2022-12-16T05:45:55.112Z,80.90
2022-12-16T05:48:47.878Z,80.90
2022-12-16T05:51:38.149Z,80.90
2022-12-16T05:54:28.504Z,80.90
2022-12-16T05:57:18.402Z,81.00
2022-12-16T06:00:08.652Z,81.00
2022-12-16T06:03:00.135Z,81.20
2022-12-16T06:05:50.260Z,81.20
2022-12-16T06:08:40.270Z,81.30
2022-12-16T06:11:30.344Z,81.30
2022-12-16T06:14:20.689Z,81.20
2022-12-16T06:17:10.740Z,81.10
2022-12-16T06:20:02.353Z,81.10
2022-12-16T06:22:52.473Z,81.20
2022-12-16T06:25:42.504Z,81.30
2022-12-16T06:28:32.551Z,81.50
2022-12-16T06:31:22.524Z,87.00
2022-12-16T06:34:12.919Z,82.60
2022-12-16T06:37:04.759Z,82.00
2022-12-16T06:39:54.739Z,82.20
2022-12-16T06:42:45.121Z,82.30
2022-12-16T06:45:35.424Z,82.30
2022-12-16T06:48:26.172Z,82.50
2022-12-16T06:51:16.257Z,82.60
2022-12-16T06:54:07.961Z,82.70
2022-12-16T06:56:58.305Z,82.80
2022-12-16T06:59:48.693Z,82.90
2022-12-16T07:02:39.072Z,83.10
2022-12-16T07:05:29.448Z,83.10
2022-12-16T07:08:19.739Z,82.80
2022-12-16T07:11:16.627Z,83.30
2022-12-16T07:14:06.912Z,83.30
2022-12-16T07:16:57.220Z,83.50
2022-12-16T07:19:47.231Z,83.50
2022-12-16T07:22:37.577Z,83.60
2022-12-16T07:25:38.228Z,83.70
2022-12-16T07:28:29.762Z,83.70
2022-12-16T07:31:20.126Z,83.70
2022-12-16T07:34:10.301Z,83.80
2022-12-16T07:37:00.736Z,83.80
2022-12-16T07:39:54.779Z,83.60
2022-12-16T07:42:45.431Z,83.50
2022-12-16T07:45:41.717Z,83.50
2022-12-16T07:48:35.220Z,83.40
2022-12-16T07:51:25.268Z,83.50
2022-12-16T07:54:15.662Z,83.40
2022-12-16T07:57:05.840Z,83.40
2022-12-16T07:59:55.830Z,83.40
2022-12-16T08:02:47.514Z,83.30
2022-12-16T08:05:37.840Z,83.20
2022-12-16T08:08:28.136Z,83.20
2022-12-16T08:11:18.207Z,83.20
2022-12-16T08:14:08.718Z,83.20
2022-12-16T08:16:59.264Z,83.20
2022-12-16T08:19:50.925Z,83.10
2022-12-16T08:22:41.363Z,83.20
2022-12-16T08:25:31.360Z,83.20
2022-12-16T08:28:21.628Z,83.10
2022-12-16T08:31:11.810Z,83.00
2022-12-16T08:34:01.898Z,82.90
2022-12-16T08:36:53.481Z,82.80
2022-12-16T08:39:44.677Z,82.80
2022-12-16T08:42:34.865Z,82.80
2022-12-16T08:45:25.608Z,82.80
2022-12-16T08:48:15.907Z,82.90
2022-12-16T08:51:06.501Z,82.90
2022-12-16T08:53:58.087Z,82.80
2022-12-16T08:56:48.443Z,82.80
2022-12-16T08:59:38.418Z,82.90
2022-12-16T09:02:28.976Z,82.80
2022-12-16T09:05:19.182Z,82.70
2022-12-16T09:08:09.595Z,82.70
2022-12-16T09:11:01.159Z,82.60
2022-12-16T09:13:56.072Z,82.50
2022-12-16T09:16:46.134Z,82.60
2022-12-16T09:19:36.485Z,82.50
2022-12-16T09:22:26.742Z,82.40
2022-12-16T09:25:16.789Z,82.40
2022-12-16T09:28:08.825Z,82.40
2022-12-16T09:30:59.076Z,82.40
2022-12-16T09:33:49.182Z,82.30
2022-12-16T09:36:39.278Z,82.20
2022-12-16T09:39:29.397Z,82.20
2022-12-16T09:42:22.314Z,82.20
2022-12-16T09:45:18.554Z,82.30
2022-12-16T09:48:13.060Z,82.30
2022-12-16T09:51:04.250Z,82.30
2022-12-16T09:53:55.537Z,82.30
2022-12-16T09:56:48.276Z,82.30
2022-12-16T09:59:40.316Z,82.30
2022-12-16T10:02:33.642Z,82.30
2022-12-16T10:05:28.451Z,82.20
2022-12-16T10:08:23.674Z,82.20
2022-12-16T10:11:17.789Z,82.00
2022-12-16T10:14:17.862Z,81.90
2022-12-16T10:17:15.735Z,81.90
2022-12-16T10:20:17.159Z,81.60
2022-12-16T10:23:09.940Z,81.60
2022-12-16T10:26:02.985Z,81.50
2022-12-16T10:29:01.337Z,81.60
2022-12-16T10:31:52.342Z,81.60
2022-12-16T10:34:45.856Z,81.60
2022-12-16T10:37:40.549Z,81.20
2022-12-16T10:40:33.386Z,81.20
2022-12-16T10:43:25.610Z,81.30
2022-12-16T10:46:16.841Z,81.20
2022-12-16T10:49:07.288Z,81.20
2022-12-16T10:51:57.288Z,81.20
2022-12-16T10:54:51.847Z,81.30
2022-12-16T10:57:50.452Z,81.30
2022-12-16T11:00:59.200Z,81.20
2022-12-16T11:03:50.430Z,81.20
2022-12-16T11:06:41.426Z,81.30
2022-12-16T11:09:39.800Z,81.30
2022-12-16T11:12:42.594Z,81.30
2022-12-16T11:15:42.192Z,81.10
2022-12-16T11:18:33.240Z,81.30
2022-12-16T11:21:41.582Z,81.00
2022-12-16T11:24:32.985Z,81.10
2022-12-16T11:27:24.129Z,81.10
2022-12-16T11:30:16.245Z,81.00
2022-12-16T11:33:07.488Z,81.00
2022-12-16T11:35:59.976Z,80.80
2022-12-16T11:38:54.723Z,80.70
2022-12-16T11:41:55.266Z,80.60
2022-12-16T11:44:48.377Z,80.50
2022-12-16T11:47:41.803Z,80.60
2022-12-16T11:50:33.722Z,80.10
2022-12-16T11:53:25.512Z,80.20
2022-12-16T11:56:16.727Z,80.10
2022-12-16T11:59:08.672Z,80.00
2022-12-16T12:02:04.334Z,80.00
2022-12-16T12:04:56.016Z,80.10
2022-12-16T12:07:52.655Z,80.10
2022-12-16T12:11:03.413Z,80.10
2022-12-16T12:14:01.002Z,80.00
2022-12-16T12:16:55.617Z,80.10
2022-12-16T12:19:51.949Z,79.90
2022-12-16T12:22:51.183Z,79.80
2022-12-16T12:25:43.898Z,79.80
2022-12-16T12:28:39.608Z,79.60
2022-12-16T12:31:36.731Z,79.40
2022-12-16T12:34:32.220Z,78.90
2022-12-16T12:37:25.531Z,78.60
2022-12-16T12:40:20.659Z,78.40
2022-12-16T12:43:13.448Z,78.30
2022-12-16T12:46:09.105Z,78.10
2022-12-16T12:49:02.929Z,77.70
2022-12-16T12:51:56.699Z,77.50
2022-12-16T12:54:51.615Z,77.20
2022-12-16T12:57:45.364Z,77.00
2022-12-16T13:00:36.931Z,76.90
2022-12-16T13:03:32.004Z,77.00
2022-12-16T13:06:22.966Z,77.10
2022-12-16T13:09:14.258Z,77.00
2022-12-16T13:12:23.398Z,77.00
2022-12-16T13:15:20.827Z,77.00
2022-12-16T13:18:30.165Z,77.30
2022-12-16T13:21:20.107Z,77.30
2022-12-16T13:24:10.436Z,77.40
2022-12-16T13:27:17.752Z,77.50
2022-12-16T13:30:20.169Z,77.50
2022-12-16T13:33:13.006Z,77.70
2022-12-16T13:36:11.022Z,77.80
2022-12-16T13:39:05.081Z,77.80
2022-12-16T13:42:09.487Z,77.80
2022-12-16T13:45:16.319Z,77.90
2022-12-16T13:48:27.549Z,77.70
2022-12-16T13:51:19.436Z,77.70
2022-12-16T13:54:11.859Z,77.60
2022-12-16T13:57:04.591Z,77.70
2022-12-16T13:59:56.085Z,77.70
2022-12-16T14:03:11.675Z,77.70
2022-12-16T14:06:02.167Z,77.80
2022-12-16T14:08:55.475Z,77.80
2022-12-16T14:11:50.894Z,77.70
2022-12-16T14:14:43.298Z,77.70
2022-12-16T14:17:36.926Z,77.70
2022-12-16T14:20:32.117Z,77.70
2022-12-16T14:23:54.493Z,77.80
2022-12-16T14:26:36.728Z,77.90
2022-12-16T14:29:33.410Z,77.90
2022-12-16T14:32:36.761Z,77.90
2022-12-16T14:35:31.004Z,77.90
2022-12-16T14:38:40.039Z,77.90
2022-12-16T14:41:31.137Z,77.90
2022-12-16T14:44:24.022Z,78.00
2022-12-16T14:47:14.026Z,77.90
2022-12-16T14:50:08.011Z,77.90
2022-12-16T14:52:58.317Z,77.90
2022-12-16T14:55:49.391Z,78.00
2022-12-16T14:58:40.381Z,78.00
2022-12-16T15:01:33.889Z,78.00
2022-12-16T15:04:27.132Z,77.80
2022-12-16T15:07:17.238Z,77.80
2022-12-16T15:10:10.081Z,77.90
2022-12-16T15:13:01.732Z,77.90
2022-12-16T15:15:53.690Z,77.90
2022-12-16T15:18:48.625Z,78.00
2022-12-16T15:21:38.758Z,78.00
2022-12-16T15:24:29.671Z,78.00
2022-12-16T15:27:32.953Z,78.10
2022-12-16T15:30:38.238Z,78.10
2022-12-16T15:33:34.214Z,78.10
2022-12-16T15:36:42.235Z,78.30
2022-12-16T15:39:40.113Z,78.30
2022-12-16T15:42:37.918Z,78.30
2022-12-16T15:45:35.552Z,78.50
2022-12-16T15:48:30.383Z,78.60
2022-12-16T15:51:20.446Z,78.60
2022-12-16T15:54:21.283Z,78.70
2022-12-16T15:57:11.770Z,78.80
2022-12-16T16:00:12.636Z,78.80
2022-12-16T16:03:20.219Z,78.80
2022-12-16T16:06:10.682Z,78.90
2022-12-16T16:09:00.901Z,78.90
2022-12-16T16:11:52.125Z,79.50
2022-12-16T16:14:42.478Z,79.00
2022-12-16T16:17:49.287Z,79.00
2022-12-16T16:20:39.426Z,79.00
2022-12-16T16:23:29.688Z,79.00
2022-12-16T16:26:19.702Z,79.00
2022-12-16T16:29:11.329Z,79.10
2022-12-16T16:32:04.358Z,79.20
2022-12-16T16:34:54.829Z,79.20
2022-12-16T16:37:45.035Z,80.20
2022-12-16T16:40:36.781Z,80.50
2022-12-16T16:43:27.171Z,80.30
2022-12-16T16:46:18.999Z,79.50
2022-12-16T16:49:09.305Z,79.50
2022-12-16T16:51:59.256Z,79.60
2022-12-16T16:54:49.518Z,79.60
2022-12-16T16:57:40.121Z,79.70
2022-12-16T17:00:30.850Z,79.70
2022-12-16T17:03:23.022Z,80.80
2022-12-16T17:06:13.208Z,83.10
2022-12-16T17:09:03.528Z,84.10
2022-12-16T17:11:53.732Z,85.10
2022-12-16T17:14:44.123Z,85.10
2022-12-16T17:17:34.339Z,84.80
2022-12-16T17:20:27.338Z,84.20
2022-12-16T17:23:17.565Z,83.70
2022-12-16T17:26:07.611Z,83.10
2022-12-16T17:28:57.919Z,82.30
2022-12-16T17:31:49.684Z,81.80
2022-12-16T17:34:39.769Z,81.20
2022-12-16T17:37:31.033Z,80.70
2022-12-16T17:40:21.225Z,80.30
2022-12-16T17:43:11.628Z,79.80
2022-12-16T17:46:02.279Z,79.50
2022-12-16T17:48:52.578Z,79.10
2022-12-16T17:51:42.944Z,78.70
2022-12-16T17:54:34.241Z,78.20
2022-12-16T17:57:24.531Z,77.70
2022-12-16T18:00:14.813Z,77.40
2022-12-16T18:03:05.266Z,77.10
2022-12-16T18:05:55.502Z,76.80
2022-12-16T18:08:45.877Z,76.50
2022-12-16T18:11:38.944Z,76.20
2022-12-16T18:14:29.338Z,75.90
2022-12-16T18:17:19.423Z,75.70
2022-12-16T18:20:09.454Z,75.60
2022-12-16T18:22:59.761Z,75.40
2022-12-16T18:25:52.984Z,75.30
2022-12-16T18:28:44.583Z,75.10
2022-12-16T18:31:34.956Z,74.90
2022-12-16T18:34:25.105Z,74.60
2022-12-16T18:37:15.168Z,74.10
2022-12-16T18:40:05.267Z,73.50
2022-12-16T18:42:55.509Z,73.10
2022-12-16T18:45:46.847Z,73.00
2022-12-16T18:48:37.024Z,73.00
2022-12-16T18:51:27.530Z,72.70
2022-12-16T18:54:17.823Z,72.20
2022-12-16T18:57:07.964Z,71.60
2022-12-16T18:59:58.422Z,71.30
2022-12-16T19:02:49.963Z,70.90
2022-12-16T19:06:00.337Z,71.00
2022-12-16T19:08:50.711Z,71.30
2022-12-16T19:11:40.842Z,71.60
2022-12-16T19:14:30.876Z,71.30
2022-12-16T19:17:20.843Z,70.80
2022-12-16T19:20:12.608Z,70.60
2022-12-16T19:23:03.014Z,70.40
2022-12-16T19:25:53.466Z,70.20
2022-12-16T19:28:43.949Z,70.10
2022-12-16T19:31:34.091Z,70.20
2022-12-16T19:34:24.467Z,70.40
2022-12-16T19:37:16.088Z,70.30
2022-12-16T19:40:07.046Z,69.70
2022-12-16T19:42:57.339Z,69.20
2022-12-16T19:45:47.538Z,68.90
2022-12-16T19:48:37.898Z,68.70
2022-12-16T19:51:28.076Z,68.90
2022-12-16T19:54:19.809Z,68.90
2022-12-16T19:57:09.904Z,68.80
2022-12-16T20:00:00.227Z,68.70
2022-12-16T20:02:51.003Z,68.20
2022-12-16T20:05:41.841Z,67.80
2022-12-16T20:08:32.235Z,68.10
2022-12-16T20:11:25.025Z,68.40
2022-12-16T20:14:15.283Z,68.50
2022-12-16T20:17:05.425Z,68.60
2022-12-16T20:19:56.134Z,68.50
2022-12-16T20:22:46.788Z,68.40
2022-12-16T20:25:37.175Z,68.30
2022-12-16T20:28:29.218Z,68.30
2022-12-16T20:31:19.964Z,68.20
2022-12-16T20:34:11.513Z,68.10
2022-12-16T20:37:01.850Z,67.90
2022-12-16T20:39:56.799Z,67.80
2022-12-16T20:42:47.677Z,67.60
2022-12-16T20:45:39.073Z,67.40
2022-12-16T20:48:31.895Z,67.30
2022-12-16T20:51:26.562Z,67.00
2022-12-16T20:54:17.067Z,66.90
2022-12-16T20:57:12.581Z,66.80
2022-12-16T21:00:03.427Z,66.80
2022-12-16T21:02:54.826Z,66.60
2022-12-16T21:05:46.488Z,66.60
2022-12-16T21:08:36.859Z,66.50
2022-12-16T21:11:27.249Z,66.30
2022-12-16T21:14:17.848Z,66.20
2022-12-16T21:17:08.510Z,66.10
2022-12-16T21:20:00.997Z,66.00
2022-12-16T21:22:51.917Z,65.90
2022-12-16T21:25:43.493Z,65.90
2022-12-16T21:28:33.756Z,65.90
2022-12-16T21:31:23.875Z,65.80
2022-12-16T21:34:14.150Z,65.80
2022-12-16T21:37:05.359Z,65.70
2022-12-16T21:39:56.002Z,65.70
2022-12-16T21:42:46.107Z,65.70
2022-12-16T21:45:36.232Z,65.60
2022-12-16T21:48:29.166Z,65.60
2022-12-16T21:51:19.247Z,65.60
2022-12-16T21:55:13.784Z,65.40
2022-12-16T21:58:04.251Z,65.30
2022-12-16T22:00:58.937Z,65.10
2022-12-16T22:04:02.109Z,65.00
2022-12-16T22:06:52.259Z,65.00
2022-12-16T22:09:42.631Z,64.90
2022-12-16T22:12:34.542Z,64.90
2022-12-16T22:15:25.856Z,64.90
2022-12-16T22:18:15.921Z,64.90
2022-12-16T22:21:14.194Z,64.90
2022-12-16T22:24:04.644Z,64.80
2022-12-16T22:26:56.409Z,64.70
2022-12-16T22:29:48.194Z,64.70
2022-12-16T22:32:38.270Z,64.60
2022-12-16T22:35:28.856Z,64.60
2022-12-16T22:38:19.479Z,64.70
2022-12-16T22:41:13.418Z,64.90
2022-12-16T22:44:04.349Z,64.90
2022-12-16T22:46:56.172Z,64.80
2022-12-16T22:49:46.593Z,64.70
2022-12-16T22:52:36.761Z,64.70
2022-12-16T22:55:27.297Z,64.70
2022-12-16T22:58:17.647Z,64.70
2022-12-16T23:01:07.739Z,64.60
2022-12-16T23:03:59.297Z,64.60
2022-12-16T23:06:49.421Z,64.00
2022-12-16T23:09:39.991Z,63.30
2022-12-16T23:12:29.976Z,63.00
2022-12-16T23:15:20.427Z,62.90
2022-12-16T23:18:10.673Z,63.00
2022-12-16T23:21:04.552Z,63.20
2022-12-16T23:23:56.974Z,63.40
2022-12-16T23:26:47.686Z,63.60
2022-12-16T23:29:37.984Z,65.60
2022-12-16T23:32:28.222Z,64.00
2022-12-16T23:35:18.740Z,64.30
2022-12-16T23:38:10.193Z,64.60
2022-12-16T23:41:00.221Z,76.00
2022-12-16T23:43:50.449Z,65.10
2022-12-16T23:46:40.498Z,72.90
2022-12-16T23:49:31.056Z,65.40
2022-12-16T23:52:21.218Z,65.50
2022-12-16T23:55:12.833Z,65.70
2022-12-16T23:58:03.253Z,65.90
